Time;durP1;ratioP1;P1;durP2;ratioP2;P2;SDS_P1;SDS_P2;PMS_P1;PMS_P2;Temp;Humidity;BMP_temperature;BMP_pressure;BME280_temperature;BME280_humidity;BME280_pressure;Samples;Min_cycle;Max_cycle;Signal;HPM_P1;HPM_P2
2024/01/30 00:26:44;;;;;;;42.57;24.73;;;;;;;;;;6253462;28;24633;-74
2024/01/30 00:29:46;;;;;;;41.17;24.05;;;;;;;;;;6263932;28;24428;-74
2024/01/30 00:32:48;;;;;;;42.50;25.60;;;;;;;;;;6262031;28;24660;-73
2024/01/30 00:35:49;;;;;;;42.60;24.00;;;;;;;;;;6264616;28;24416;-74
2024/01/30 00:38:51;;;;;;;40.63;24.80;;;;;;;;;;6263814;28;24673;-75
2024/01/30 00:41:55;;;;;;;43.45;25.45;;;;;;;;;;6261932;28;24422;-74
2024/01/30 00:44:57;;;;;;;44.42;25.13;;;;;;;;;;6265755;28;24493;-74
2024/01/30 00:47:58;;;;;;;44.42;25.77;;;;;;;;;;6266506;28;24423;-73
2024/01/30 00:51:00;;;;;;;43.83;25.48;;;;;;;;;;6262072;28;24427;-73
2024/01/30 00:54:06;;;;;;;45.83;25.80;;;;;;;;;;6269269;28;24663;-73
2024/01/30 00:57:09;;;;;;;45.35;25.02;;;;;;;;;;6268029;28;24741;-74
2024/01/30 01:00:12;;;;;;;45.45;26.20;;;;;;;;;;6267114;28;24910;-73
2024/01/30 01:03:14;;;;;;;45.28;26.05;;;;;;;;;;6264050;28;24427;-73
2024/01/30 01:20:48;;;;;;;51.92;27.23;;;;;;;;;;6251256;28;24479;-72
2024/01/30 01:23:49;;;;;;;52.63;27.77;;;;;;;;;;6234771;28;24506;-73
2024/01/30 01:26:51;;;;;;;50.22;27.25;;;;;;;;;;6237688;28;24627;-73
2024/01/30 01:29:53;;;;;;;54.20;27.83;;;;;;;;;;6237958;28;24432;-73
2024/01/30 01:32:56;;;;;;;54.70;28.13;;;;;;;;;;6242383;28;24472;-73
2024/01/30 01:35:59;;;;;;;53.08;28.38;;;;;;;;;;6239920;28;24424;-75
2024/01/30 01:39:01;;;;;;;52.47;28.75;;;;;;;;;;6240065;28;24416;-73
2024/01/30 01:42:02;;;;;;;55.85;28.67;;;;;;;;;;6243148;28;24427;-73
2024/01/30 01:45:04;;;;;;;54.95;27.45;;;;;;;;;;6240902;28;24436;-73
2024/01/30 01:48:06;;;;;;;53.90;27.63;;;;;;;;;;6241937;28;24495;-73
2024/01/30 01:51:09;;;;;;;55.17;28.17;;;;;;;;;;6243490;28;24828;-73
2024/01/30 01:54:11;;;;;;;52.63;27.88;;;;;;;;;;6238976;28;24433;-74
2024/01/30 01:57:13;;;;;;;49.30;26.27;;;;;;;;;;6241953;28;24427;-74
2024/01/30 02:00:15;;;;;;;53.97;27.67;;;;;;;;;;6242010;28;24625;-73
2024/01/30 02:03:18;;;;;;;57.50;28.60;;;;;;;;;;6242891;28;24634;-73
2024/01/30 02:06:22;;;;;;;53.80;27.73;;;;;;;;;;6245765;28;24786;-74
2024/01/30 02:09:24;;;;;;;56.20;28.63;;;;;;;;;;6241975;28;24463;-74
2024/01/30 02:12:25;;;;;;;52.22;27.90;;;;;;;;;;6244509;28;24443;-76
2024/01/30 02:15:27;;;;;;;55.43;28.07;;;;;;;;;;6242914;28;24482;-74
2024/01/30 02:18:29;;;;;;;51.95;26.83;;;;;;;;;;6242927;28;24852;-74
2024/01/30 02:21:32;;;;;;;54.78;27.58;;;;;;;;;;6239571;28;24436;-74
2024/01/30 02:24:33;;;;;;;54.90;28.07;;;;;;;;;;6241417;28;24499;-76
2024/01/30 02:27:35;;;;;;;53.43;27.57;;;;;;;;;;6241661;28;24432;-74
2024/01/30 02:30:37;;;;;;;51.47;27.58;;;;;;;;;;6242773;28;24430;-74
2024/01/30 02:33:39;;;;;;;52.40;28.35;;;;;;;;;;6239287;28;24427;-74
2024/01/30 02:36:44;;;;;;;56.08;28.77;;;;;;;;;;6239398;28;24832;-74
2024/01/30 02:39:46;;;;;;;54.97;28.88;;;;;;;;;;6242258;28;24427;-74
2024/01/30 02:42:49;;;;;;;55.53;28.40;;;;;;;;;;6243002;28;24466;-74
2024/01/30 02:45:50;;;;;;;50.42;27.67;;;;;;;;;;6242809;28;24451;-75
2024/01/30 02:48:52;;;;;;;49.20;26.83;;;;;;;;;;6242172;28;24436;-74
2024/01/30 02:51:56;;;;;;;54.90;27.30;;;;;;;;;;6240397;28;24866;-73
2024/01/30 02:54:58;;;;;;;53.22;27.38;;;;;;;;;;6239787;28;24865;-73
2024/01/30 02:57:59;;;;;;;54.25;28.08;;;;;;;;;;6240073;28;24868;-73
2024/01/30 03:01:03;;;;;;;51.30;27.75;;;;;;;;;;6241218;28;24471;-74
2024/01/30 03:04:05;;;;;;;53.78;27.65;;;;;;;;;;6243561;28;24458;-73
2024/01/30 03:21:59;;;;;;;42.63;25.63;;;;;;;;;;6243360;28;24405;-74
2024/01/30 03:25:02;;;;;;;43.88;25.30;;;;;;;;;;6239571;28;24440;-74
2024/01/30 03:28:04;;;;;;;43.47;25.00;;;;;;;;;;6240168;28;24436;-78
2024/01/30 03:31:05;;;;;;;43.38;25.00;;;;;;;;;;6239469;28;24431;-78
2024/01/30 03:34:07;;;;;;;44.42;24.80;;;;;;;;;;6242096;28;24441;-78
2024/01/30 03:37:08;;;;;;;42.22;24.10;;;;;;;;;;6241242;28;24416;-77
2024/01/30 03:40:13;;;;;;;42.92;24.45;;;;;;;;;;6241819;28;24431;-78
2024/01/30 03:43:14;;;;;;;40.03;24.20;;;;;;;;;;6239733;28;24423;-78
2024/01/30 03:46:16;;;;;;;39.72;23.58;;;;;;;;;;6244741;28;24427;-78
2024/01/30 03:49:17;;;;;;;40.85;23.05;;;;;;;;;;6240834;28;24424;-78
2024/01/30 03:52:19;;;;;;;39.80;23.10;;;;;;;;;;6240164;28;24479;-78
2024/01/30 03:55:22;;;;;;;38.20;22.52;;;;;;;;;;6241506;28;24428;-78
2024/01/30 03:58:24;;;;;;;39.03;23.30;;;;;;;;;;6240124;28;24420;-78
2024/01/30 04:01:26;;;;;;;40.55;23.67;;;;;;;;;;6240314;28;24431;-78
2024/01/30 04:04:30;;;;;;;36.55;22.95;;;;;;;;;;6237790;28;24503;-78
2024/01/30 04:07:32;;;;;;;38.88;23.05;;;;;;;;;;6240900;28;24761;-76
2024/01/30 04:10:35;;;;;;;36.10;22.23;;;;;;;;;;6239331;28;24431;-77
2024/01/30 04:13:37;;;;;;;37.47;23.05;;;;;;;;;;6240887;28;24801;-77
2024/01/30 04:16:38;;;;;;;37.92;22.92;;;;;;;;;;6240725;28;24439;-78
2024/01/30 04:19:40;;;;;;;39.28;23.60;;;;;;;;;;6242272;28;24661;-77
2024/01/30 04:22:43;;;;;;;39.70;22.88;;;;;;;;;;6236505;28;24444;-77
2024/01/30 04:25:46;;;;;;;41.27;23.90;;;;;;;;;;6240988;28;24471;-78
2024/01/30 04:28:48;;;;;;;40.45;24.73;;;;;;;;;;6247031;28;24478;-78
2024/01/30 04:31:49;;;;;;;40.28;23.30;;;;;;;;;;6265452;28;24882;-78
2024/01/30 04:34:51;;;;;;;45.30;25.10;;;;;;;;;;6239585;28;24420;-78
2024/01/30 04:37:53;;;;;;;42.83;24.50;;;;;;;;;;6238663;28;24803;-74
2024/01/30 04:40:56;;;;;;;44.65;25.42;;;;;;;;;;6240757;28;24646;-74
2024/01/30 04:43:58;;;;;;;43.60;24.85;;;;;;;;;;6238845;28;24423;-74
2024/01/30 04:47:01;;;;;;;44.97;25.73;;;;;;;;;;6238850;28;24688;-74
2024/01/30 04:50:04;;;;;;;47.08;27.17;;;;;;;;;;6241167;28;24866;-74
2024/01/30 04:53:06;;;;;;;48.13;27.08;;;;;;;;;;6239313;28;24806;-73
2024/01/30 04:56:09;;;;;;;47.77;26.77;;;;;;;;;;6238558;28;24515;-73
2024/01/30 04:59:11;;;;;;;50.33;28.05;;;;;;;;;;6237705;28;24412;-73
2024/01/30 05:02:13;;;;;;;50.30;27.92;;;;;;;;;;6238316;28;24412;-73
2024/01/30 05:05:14;;;;;;;52.33;28.45;;;;;;;;;;6244066;28;24618;-73
2024/01/30 05:08:16;;;;;;;53.20;28.92;;;;;;;;;;6243121;28;24478;-73
2024/01/30 05:11:19;;;;;;;50.38;28.90;;;;;;;;;;6240768;28;24838;-73
2024/01/30 05:14:21;;;;;;;52.80;28.42;;;;;;;;;;6246062;28;24432;-73
2024/01/30 05:17:22;;;;;;;51.47;28.00;;;;;;;;;;6241910;28;24424;-73
2024/01/30 05:20:24;;;;;;;51.85;28.92;;;;;;;;;;6245285;28;24583;-73
2024/01/30 05:23:25;;;;;;;53.22;28.33;;;;;;;;;;6242215;28;24436;-73
2024/01/30 05:26:29;;;;;;;50.35;28.45;;;;;;;;;;6242612;28;24423;-72
2024/01/30 05:29:30;;;;;;;50.13;28.27;;;;;;;;;;6242339;28;24517;-73
2024/01/30 05:32:31;;;;;;;48.75;28.15;;;;;;;;;;6244781;28;24482;-73
2024/01/30 05:35:33;;;;;;;48.38;28.25;;;;;;;;;;6239908;28;24423;-72
2024/01/30 05:38:44;;;;;;;46.78;27.17;;;;;;;;;;6242390;28;25030;-72
2024/01/30 05:41:47;;;;;;;46.53;27.42;;;;;;;;;;6246753;28;24901;-72
2024/01/30 05:44:49;;;;;;;44.80;25.85;;;;;;;;;;6243052;28;24428;-72
2024/01/30 05:47:52;;;;;;;42.75;25.52;;;;;;;;;;6239767;28;24416;-77
2024/01/30 05:50:54;;;;;;;40.90;25.08;;;;;;;;;;6244690;28;24420;-77
2024/01/30 05:53:56;;;;;;;40.90;24.75;;;;;;;;;;6244290;28;24591;-77
2024/01/30 05:56:59;;;;;;;44.38;25.55;;;;;;;;;;6250225;28;24806;-76
2024/01/30 06:00:00;;;;;;;40.75;25.40;;;;;;;;;;6241342;28;24431;-77
2024/01/30 06:03:02;;;;;;;42.65;25.15;;;;;;;;;;6242464;28;24433;-77
2024/01/30 06:06:03;;;;;;;41.15;24.88;;;;;;;;;;6244948;28;24654;-77
2024/01/30 06:09:05;;;;;;;42.53;25.35;;;;;;;;;;6244237;28;24428;-77
2024/01/30 06:12:09;;;;;;;40.70;24.58;;;;;;;;;;6243068;28;24925;-77
2024/01/30 06:15:12;;;;;;;41.30;24.33;;;;;;;;;;6243541;28;24439;-77
2024/01/30 06:18:14;;;;;;;41.45;24.98;;;;;;;;;;6242313;28;24615;-77
2024/01/30 06:21:15;;;;;;;40.90;25.00;;;;;;;;;;6245036;28;24416;-77
2024/01/30 06:24:17;;;;;;;39.33;23.80;;;;;;;;;;6242524;28;24817;-77
2024/01/30 06:27:20;;;;;;;39.17;24.45;;;;;;;;;;6243002;28;24514;-77
2024/01/30 06:30:22;;;;;;;42.17;26.75;;;;;;;;;;6241112;28;24443;-77
2024/01/30 06:33:24;;;;;;;42.60;27.00;;;;;;;;;;6275399;28;24435;-77
2024/01/30 06:36:26;;;;;;;40.05;26.80;;;;;;;;;;6243238;28;24622;-77
2024/01/30 06:39:28;;;;;;;43.70;28.23;;;;;;;;;;6239354;28;24422;-77
2024/01/30 06:42:32;;;;;;;42.65;27.13;;;;;;;;;;6241376;28;24816;-78
2024/01/30 06:45:34;;;;;;;43.22;26.90;;;;;;;;;;6238900;28;24517;-77
2024/01/30 06:48:35;;;;;;;43.08;26.63;;;;;;;;;;6238056;28;24500;-77
2024/01/30 06:51:37;;;;;;;41.90;26.83;;;;;;;;;;6244443;28;24428;-76
2024/01/30 06:54:39;;;;;;;40.03;26.02;;;;;;;;;;6242663;28;24848;-77
2024/01/30 06:57:42;;;;;;;42.30;26.55;;;;;;;;;;6243959;28;24938;-73
2024/01/30 07:00:44;;;;;;;41.17;26.10;;;;;;;;;;6242117;28;24459;-72
2024/01/30 07:03:45;;;;;;;40.63;26.40;;;;;;;;;;6241631;28;24435;-74
2024/01/30 07:06:47;;;;;;;40.85;26.60;;;;;;;;;;6244547;28;24443;-74
2024/01/30 07:09:52;;;;;;;45.63;28.33;;;;;;;;;;6240027;28;24447;-73
2024/01/30 07:12:55;;;;;;;42.80;27.58;;;;;;;;;;6242594;28;25008;-73
2024/01/30 07:15:56;;;;;;;42.40;27.60;;;;;;;;;;6240023;28;24869;-73
2024/01/30 07:18:59;;;;;;;43.13;27.77;;;;;;;;;;6244056;28;24496;-73
2024/01/30 07:22:01;;;;;;;44.25;26.65;;;;;;;;;;6263172;28;24427;-73
2024/01/30 07:25:03;;;;;;;45.55;27.48;;;;;;;;;;6239570;28;24442;-74
2024/01/30 07:28:07;;;;;;;43.65;26.73;;;;;;;;;;6237799;28;24431;-74
2024/01/30 07:31:08;;;;;;;39.88;25.88;;;;;;;;;;6239969;28;24439;-74
2024/01/30 07:34:11;;;;;;;39.38;26.75;;;;;;;;;;6241552;28;24831;-74
2024/01/30 07:37:15;;;;;;;42.70;26.20;;;;;;;;;;6240828;28;24424;-74
2024/01/30 07:40:17;;;;;;;43.13;27.65;;;;;;;;;;6239234;28;24435;-74
2024/01/30 07:43:20;;;;;;;45.60;27.08;;;;;;;;;;6238899;28;24527;-74
2024/01/30 07:46:22;;;;;;;41.17;26.83;;;;;;;;;;6241443;28;24469;-74
2024/01/30 07:49:23;;;;;;;38.45;25.25;;;;;;;;;;6237696;28;24431;-74
2024/01/30 07:52:25;;;;;;;39.33;24.75;;;;;;;;;;6240420;28;24459;-74
2024/01/30 07:55:28;;;;;;;38.22;24.02;;;;;;;;;;6237052;28;24420;-74
2024/01/30 07:58:31;;;;;;;34.73;23.20;;;;;;;;;;6239034;28;24447;-74
2024/01/30 08:01:33;;;;;;;35.08;22.77;;;;;;;;;;6266299;28;24824;-74
2024/01/30 08:04:35;;;;;;;34.65;22.65;;;;;;;;;;6262784;28;24418;-74
2024/01/30 08:07:36;;;;;;;36.28;22.42;;;;;;;;;;6267815;28;24451;-73
2024/01/30 08:10:38;;;;;;;35.55;21.92;;;;;;;;;;6263603;28;24419;-73
2024/01/30 08:13:40;;;;;;;34.90;22.95;;;;;;;;;;6263643;28;24427;-73
2024/01/30 08:16:42;;;;;;;34.40;22.57;;;;;;;;;;6264371;28;24649;-74
2024/01/30 08:19:44;;;;;;;34.47;22.77;;;;;;;;;;6271009;28;24481;-73
2024/01/30 08:22:45;;;;;;;33.15;21.85;;;;;;;;;;6265074;28;24478;-73
2024/01/30 08:25:47;;;;;;;34.33;23.33;;;;;;;;;;6265071;28;24466;-73
2024/01/30 08:28:50;;;;;;;40.90;24.40;;;;;;;;;;6264690;28;25024;-74
2024/01/30 08:31:51;;;;;;;38.00;25.08;;;;;;;;;;6269582;28;24412;-74
2024/01/30 08:34:53;;;;;;;37.30;24.45;;;;;;;;;;6261151;28;24656;-73
2024/01/30 08:37:55;;;;;;;33.63;23.70;;;;;;;;;;6263110;28;24411;-73
2024/01/30 08:40:57;;;;;;;37.55;23.70;;;;;;;;;;6261950;28;24430;-73
2024/01/30 08:44:00;;;;;;;32.15;23.05;;;;;;;;;;6264010;28;24439;-74
2024/01/30 08:47:03;;;;;;;35.08;23.50;;;;;;;;;;6266195;28;24439;-73
2024/01/30 08:50:05;;;;;;;34.58;23.67;;;;;;;;;;6262758;28;24526;-73
2024/01/30 08:53:06;;;;;;;37.10;24.08;;;;;;;;;;6263128;28;24428;-73
2024/01/30 08:56:08;;;;;;;34.03;23.67;;;;;;;;;;6268156;28;24411;-74
2024/01/30 08:59:11;;;;;;;46.65;26.48;;;;;;;;;;6262628;28;24416;-73
2024/01/30 09:02:16;;;;;;;36.80;25.23;;;;;;;;;;6261014;28;24415;-74
2024/01/30 09:05:17;;;;;;;33.80;23.00;;;;;;;;;;6266332;28;24427;-74
2024/01/30 09:08:19;;;;;;;34.83;23.25;;;;;;;;;;6266261;28;24423;-74
2024/01/30 09:11:21;;;;;;;33.53;23.25;;;;;;;;;;6263528;28;24530;-73
2024/01/30 09:14:24;;;;;;;32.15;22.23;;;;;;;;;;6264107;28;24840;-73
2024/01/30 09:17:25;;;;;;;30.30;22.35;;;;;;;;;;6263966;28;24423;-74
2024/01/30 09:20:27;;;;;;;31.02;22.48;;;;;;;;;;6261479;28;24430;-73
2024/01/30 09:23:29;;;;;;;33.10;22.38;;;;;;;;;;6265518;28;24462;-74
2024/01/30 09:26:31;;;;;;;31.67;21.87;;;;;;;;;;6261545;28;24907;-74
2024/01/30 09:29:34;;;;;;;33.35;23.70;;;;;;;;;;6264706;28;24419;-73
2024/01/30 09:32:35;;;;;;;33.63;23.33;;;;;;;;;;6261947;28;24430;-73
2024/01/30 09:35:37;;;;;;;32.80;23.05;;;;;;;;;;6269263;28;24800;-73
2024/01/30 09:38:39;;;;;;;30.73;21.83;;;;;;;;;;6263422;28;24507;-73
2024/01/30 09:41:45;;;;;;;30.23;22.40;;;;;;;;;;6263652;28;24998;-73
2024/01/30 09:44:49;;;;;;;29.67;22.40;;;;;;;;;;6263932;28;24423;-73
2024/01/30 09:47:50;;;;;;;31.83;21.80;;;;;;;;;;6259795;28;24808;-73
2024/01/30 09:50:52;;;;;;;33.07;23.33;;;;;;;;;;6265545;28;24618;-72
2024/01/30 09:53:55;;;;;;;33.63;23.90;;;;;;;;;;6270251;28;24491;-74
2024/01/30 09:56:56;;;;;;;31.10;23.58;;;;;;;;;;6268411;28;24430;-75
2024/01/30 10:00:00;;;;;;;33.08;23.90;;;;;;;;;;6264246;28;24418;-75
2024/01/30 10:03:01;;;;;;;32.33;23.52;;;;;;;;;;6264596;28;24423;-74
2024/01/30 10:06:03;;;;;;;30.50;22.50;;;;;;;;;;6299302;28;24462;-75
2024/01/30 10:09:05;;;;;;;30.17;22.60;;;;;;;;;;6267236;28;24431;-74
2024/01/30 10:12:07;;;;;;;32.83;23.70;;;;;;;;;;6265100;28;24438;-73
2024/01/30 10:15:10;;;;;;;32.73;24.73;;;;;;;;;;6266865;28;24734;-73
2024/01/30 10:18:12;;;;;;;33.83;23.42;;;;;;;;;;6264490;28;24424;-73
2024/01/30 10:21:14;;;;;;;34.30;24.40;;;;;;;;;;6266446;28;24850;-74
2024/01/30 10:24:16;;;;;;;32.88;23.77;;;;;;;;;;6267264;28;24522;-73
2024/01/30 10:27:24;;;;;;;36.28;24.65;;;;;;;;;;6266429;28;24439;-76
2024/01/30 10:30:28;;;;;;;29.63;23.08;;;;;;;;;;6267194;28;24478;-76
2024/01/30 10:33:30;;;;;;;33.43;23.27;;;;;;;;;;6263048;28;24868;-76
2024/01/30 10:36:35;;;;;;;32.57;24.63;;;;;;;;;;6264170;28;24422;-76
2024/01/30 10:39:39;;;;;;;35.25;24.88;;;;;;;;;;6262316;28;24420;-78
2024/01/30 10:42:43;;;;;;;29.75;22.60;;;;;;;;;;6265529;28;24470;-77
2024/01/30 10:45:51;;;;;;;28.23;21.77;;;;;;;;;;6261933;28;24420;-78
2024/01/30 10:48:57;;;;;;;30.45;21.98;;;;;;;;;;6266464;28;24465;-77
2024/01/30 10:52:00;;;;;;;29.05;21.85;;;;;;;;;;6266629;28;24416;-76
2024/01/30 10:55:03;;;;;;;30.17;21.98;;;;;;;;;;6262657;28;24880;-77
2024/01/30 10:58:05;;;;;;;29.70;22.15;;;;;;;;;;6267265;28;24607;-76
2024/01/30 11:01:08;;;;;;;28.97;22.50;;;;;;;;;;6299999;28;24492;-77
2024/01/30 11:04:10;;;;;;;30.73;23.15;;;;;;;;;;6266065;28;24430;-77
2024/01/30 11:07:15;;;;;;;31.55;23.23;;;;;;;;;;6272419;28;25074;-78
2024/01/30 11:10:18;;;;;;;29.50;22.15;;;;;;;;;;6266560;28;24832;-76
2024/01/30 11:13:20;;;;;;;33.45;24.13;;;;;;;;;;6266181;28;24430;-77
2024/01/30 11:16:23;;;;;;;31.85;23.75;;;;;;;;;;6262495;28;24944;-77
2024/01/30 11:19:26;;;;;;;37.03;26.97;;;;;;;;;;6268140;28;24828;-77
2024/01/30 11:22:27;;;;;;;44.35;30.25;;;;;;;;;;6266353;28;24479;-77
2024/01/30 11:25:29;;;;;;;43.08;30.35;;;;;;;;;;6264695;28;24433;-77
2024/01/30 11:28:33;;;;;;;43.33;30.25;;;;;;;;;;6266470;28;24443;-77
2024/01/30 11:31:36;;;;;;;42.80;30.20;;;;;;;;;;6266137;28;24412;-75
2024/01/30 11:34:41;;;;;;;41.53;29.17;;;;;;;;;;6265333;28;24435;-76
2024/01/30 11:37:44;;;;;;;42.08;29.35;;;;;;;;;;6264959;28;24435;-76
2024/01/30 11:40:46;;;;;;;37.08;26.88;;;;;;;;;;6265247;28;24789;-76
2024/01/30 11:43:52;;;;;;;34.92;25.10;;;;;;;;;;6266054;28;24486;-77
2024/01/30 11:46:55;;;;;;;32.08;24.02;;;;;;;;;;6263347;28;24434;-77
2024/01/30 11:49:57;;;;;;;32.35;24.45;;;;;;;;;;6264727;28;24560;-77
2024/01/30 11:52:59;;;;;;;31.60;24.63;;;;;;;;;;6264870;28;24812;-77
2024/01/30 11:56:01;;;;;;;32.42;23.95;;;;;;;;;;6263276;28;24419;-75
2024/01/30 11:59:03;;;;;;;35.53;25.17;;;;;;;;;;6266016;28;24466;-76
2024/01/30 12:02:07;;;;;;;37.55;27.85;;;;;;;;;;6262594;28;24415;-75
2024/01/30 12:05:09;;;;;;;37.73;27.40;;;;;;;;;;6265807;28;24575;-76
2024/01/30 12:08:15;;;;;;;43.20;30.45;;;;;;;;;;6263919;28;24499;-77
2024/01/30 12:11:16;;;;;;;37.78;28.48;;;;;;;;;;6292428;28;24617;-77
2024/01/30 12:14:19;;;;;;;40.57;29.33;;;;;;;;;;6262276;28;24813;-76
2024/01/30 12:17:29;;;;;;;43.50;31.05;;;;;;;;;;6269162;28;24427;-75
2024/01/30 12:20:30;;;;;;;42.33;29.02;;;;;;;;;;6264967;28;24423;-76
2024/01/30 12:23:32;;;;;;;47.55;31.60;;;;;;;;;;6263649;28;24477;-77
2024/01/30 12:26:34;;;;;;;46.65;32.05;;;;;;;;;;6264027;28;24415;-76
2024/01/30 12:29:35;;;;;;;50.43;36.47;;;;;;;;;;6263698;28;24866;-77
2024/01/30 12:32:40;;;;;;;56.03;38.28;;;;;;;;;;6261027;28;24423;-77
2024/01/30 12:35:46;;;;;;;56.15;38.42;;;;;;;;;;6261510;28;24419;-77
2024/01/30 12:38:48;;;;;;;53.35;37.63;;;;;;;;;;6262893;28;24432;-77
2024/01/30 12:41:49;;;;;;;53.35;36.08;;;;;;;;;;6261729;28;24426;-77
2024/01/30 12:44:51;;;;;;;49.90;34.38;;;;;;;;;;6261829;28;24826;-77
2024/01/30 12:47:55;;;;;;;50.42;34.40;;;;;;;;;;6263738;28;24439;-74
2024/01/30 12:50:57;;;;;;;50.38;33.75;;;;;;;;;;6261660;28;24900;-74
2024/01/30 12:53:58;;;;;;;45.35;32.13;;;;;;;;;;6262564;28;24801;-74
2024/01/30 12:57:00;;;;;;;51.30;34.13;;;;;;;;;;6260080;28;24419;-74
2024/01/30 13:00:02;;;;;;;46.00;31.50;;;;;;;;;;6266493;28;24477;-75
2024/01/30 13:03:05;;;;;;;37.78;28.05;;;;;;;;;;6265632;28;24491;-74
2024/01/30 13:06:07;;;;;;;35.30;25.67;;;;;;;;;;6262601;28;24431;-74
2024/01/30 13:09:09;;;;;;;45.50;31.02;;;;;;;;;;6264684;28;24434;-73
2024/01/30 13:12:10;;;;;;;43.53;30.95;;;;;;;;;;6268117;28;24431;-74
2024/01/30 13:15:12;;;;;;;48.83;32.45;;;;;;;;;;6262813;28;24442;-73
2024/01/30 13:18:15;;;;;;;42.00;30.65;;;;;;;;;;6266770;28;24430;-73
2024/01/30 13:21:17;;;;;;;40.72;29.05;;;;;;;;;;6264791;28;24446;-73
2024/01/30 13:24:21;;;;;;;42.08;29.10;;;;;;;;;;6269659;28;24427;-74
2024/01/30 13:27:22;;;;;;;40.55;29.33;;;;;;;;;;6270444;28;24454;-74
2024/01/30 13:30:24;;;;;;;42.72;30.52;;;;;;;;;;6267867;28;24412;-74
2024/01/30 13:33:27;;;;;;;47.45;32.60;;;;;;;;;;6283671;28;24469;-73
2024/01/30 13:36:29;;;;;;;41.88;30.70;;;;;;;;;;6267462;28;24420;-73
2024/01/30 13:39:30;;;;;;;42.30;30.52;;;;;;;;;;6268294;28;24514;-74
2024/01/30 13:42:32;;;;;;;43.97;30.77;;;;;;;;;;6271303;28;24424;-74
2024/01/30 13:45:33;;;;;;;42.67;30.13;;;;;;;;;;6268285;28;24435;-74
2024/01/30 13:48:37;;;;;;;43.40;30.85;;;;;;;;;;6266241;28;24813;-74
2024/01/30 13:51:38;;;;;;;41.97;30.73;;;;;;;;;;6266463;28;24430;-74
2024/01/30 13:54:40;;;;;;;38.50;28.77;;;;;;;;;;6269499;28;24435;-74
2024/01/30 13:57:41;;;;;;;43.05;32.30;;;;;;;;;;6267038;28;24431;-74
2024/01/30 14:00:44;;;;;;;42.60;32.20;;;;;;;;;;6265603;28;24427;-74
2024/01/30 14:03:47;;;;;;;41.57;30.23;;;;;;;;;;6268781;28;24470;-74
2024/01/30 14:06:49;;;;;;;42.42;30.85;;;;;;;;;;6264730;28;24430;-74
2024/01/30 14:09:51;;;;;;;42.07;29.87;;;;;;;;;;6267757;28;24430;-74
2024/01/30 14:12:56;;;;;;;41.60;29.88;;;;;;;;;;6267372;28;24435;-73
2024/01/30 14:15:58;;;;;;;40.25;28.85;;;;;;;;;;6270199;28;24447;-73
2024/01/30 14:19:01;;;;;;;42.05;29.67;;;;;;;;;;6269090;28;24434;-72
2024/01/30 14:22:02;;;;;;;40.45;29.73;;;;;;;;;;6267893;28;24530;-74
2024/01/30 14:25:04;;;;;;;38.53;29.05;;;;;;;;;;6266630;28;24852;-74
2024/01/30 14:28:06;;;;;;;42.00;29.08;;;;;;;;;;6263449;28;24463;-73
2024/01/30 14:31:08;;;;;;;38.45;29.33;;;;;;;;;;6267900;28;24442;-74
2024/01/30 14:34:12;;;;;;;36.70;27.67;;;;;;;;;;6268690;28;24958;-73
2024/01/30 14:37:14;;;;;;;39.00;29.20;;;;;;;;;;6263413;28;24431;-73
2024/01/30 14:40:15;;;;;;;40.90;29.43;;;;;;;;;;6269348;28;24424;-74
2024/01/30 14:43:17;;;;;;;84.38;56.10;;;;;;;;;;6268998;28;24677;-74
2024/01/30 14:46:19;;;;;;;88.47;57.42;;;;;;;;;;6264706;28;25086;-73
2024/01/30 14:49:22;;;;;;;75.40;50.15;;;;;;;;;;6264361;28;24428;-73
2024/01/30 14:52:23;;;;;;;56.77;39.30;;;;;;;;;;6269341;28;24618;-72
2024/01/30 14:55:25;;;;;;;62.83;40.63;;;;;;;;;;6265839;28;24431;-73
2024/01/30 14:58:26;;;;;;;63.83;42.30;;;;;;;;;;6266622;28;24641;-74
2024/01/30 15:01:28;;;;;;;50.10;35.67;;;;;;;;;;6269086;28;25036;-74
2024/01/30 15:04:31;;;;;;;44.05;31.13;;;;;;;;;;6266079;28;24812;-73
2024/01/30 15:07:32;;;;;;;40.25;28.25;;;;;;;;;;6254282;28;24428;-74
2024/01/30 15:10:34;;;;;;;41.67;28.60;;;;;;;;;;6240251;28;24934;-73
2024/01/30 15:13:35;;;;;;;39.75;27.65;;;;;;;;;;6243068;28;24439;-73
2024/01/30 15:16:39;;;;;;;37.33;26.73;;;;;;;;;;6240295;28;24494;-73
2024/01/30 15:19:42;;;;;;;40.15;27.48;;;;;;;;;;6235420;28;24443;-73
2024/01/30 15:22:44;;;;;;;39.40;27.75;;;;;;;;;;6267048;28;24439;-73
2024/01/30 15:25:46;;;;;;;38.75;27.10;;;;;;;;;;6238140;28;25080;-74
2024/01/30 15:28:48;;;;;;;39.38;27.55;;;;;;;;;;6238675;28;24906;-75
2024/01/30 15:31:49;;;;;;;39.42;26.98;;;;;;;;;;6240965;28;24470;-74
2024/01/30 15:34:54;;;;;;;35.83;24.85;;;;;;;;;;6242209;28;24547;-75
2024/01/30 15:37:56;;;;;;;40.55;26.05;;;;;;;;;;6240370;28;24427;-74
2024/01/30 15:40:57;;;;;;;39.50;26.50;;;;;;;;;;6227985;28;24465;-74
2024/01/30 15:44:01;;;;;;;39.00;26.42;;;;;;;;;;6276616;28;24431;-74
2024/01/30 15:47:03;;;;;;;37.15;24.42;;;;;;;;;;6244057;28;24488;-75
2024/01/30 15:50:08;;;;;;;38.45;23.67;;;;;;;;;;6245379;28;24865;-74
2024/01/30 15:53:10;;;;;;;38.90;23.13;;;;;;;;;;6241669;28;24483;-75
2024/01/30 15:56:12;;;;;;;35.05;23.00;;;;;;;;;;6245701;28;24461;-74
2024/01/30 15:59:14;;;;;;;37.75;23.38;;;;;;;;;;6258244;28;24420;-74
2024/01/30 16:02:16;;;;;;;34.78;22.33;;;;;;;;;;6242293;28;24419;-74
2024/01/30 16:05:21;;;;;;;39.58;23.73;;;;;;;;;;6244637;28;24479;-73
2024/01/30 16:08:22;;;;;;;37.85;23.30;;;;;;;;;;6237240;28;24435;-74
2024/01/30 16:11:24;;;;;;;39.78;23.45;;;;;;;;;;6244292;28;24801;-73
2024/01/30 16:14:25;;;;;;;38.17;22.15;;;;;;;;;;6242097;28;24626;-74
2024/01/30 16:17:27;;;;;;;38.67;22.58;;;;;;;;;;6242586;28;24415;-74
2024/01/30 16:20:30;;;;;;;36.43;22.13;;;;;;;;;;6242657;28;24427;-74
2024/01/30 16:23:31;;;;;;;35.33;21.42;;;;;;;;;;6241491;28;24431;-77
2024/01/30 16:26:33;;;;;;;43.60;26.95;;;;;;;;;;6240431;28;24412;-73
2024/01/30 16:29:35;;;;;;;62.35;35.13;;;;;;;;;;6244113;28;24507;-74
2024/01/30 16:32:36;;;;;;;52.22;30.10;;;;;;;;;;6242837;28;24423;-74
2024/01/30 16:35:41;;;;;;;41.75;24.50;;;;;;;;;;6239511;28;24420;-74
2024/01/30 16:38:43;;;;;;;43.72;24.23;;;;;;;;;;6244074;28;24420;-74
2024/01/30 16:41:45;;;;;;;40.72;22.90;;;;;;;;;;6243343;28;24620;-75
2024/01/30 16:44:46;;;;;;;41.95;23.08;;;;;;;;;;6241058;28;24847;-74
2024/01/30 16:47:48;;;;;;;35.57;19.50;;;;;;;;;;6244396;28;24507;-74
2024/01/30 16:50:51;;;;;;;37.25;21.10;;;;;;;;;;6239319;28;24834;-74
2024/01/30 16:53:52;;;;;;;35.08;19.73;;;;;;;;;;6239895;28;24833;-74
2024/01/30 16:56:54;;;;;;;35.72;19.75;;;;;;;;;;6244853;28;24506;-74
2024/01/30 16:59:56;;;;;;;37.45;20.55;;;;;;;;;;6244212;28;24416;-74
2024/01/30 17:02:58;;;;;;;33.03;19.63;;;;;;;;;;6246853;28;24432;-74
2024/01/30 17:06:05;;;;;;;41.20;21.15;;;;;;;;;;6246735;28;24428;-74
2024/01/30 17:09:07;;;;;;;37.50;21.08;;;;;;;;;;6245315;28;24852;-74
2024/01/30 17:12:11;;;;;;;39.42;21.40;;;;;;;;;;6248188;28;24428;-74
2024/01/30 17:15:13;;;;;;;41.88;22.65;;;;;;;;;;6250419;28;24440;-75
2024/01/30 17:18:15;;;;;;;39.30;22.90;;;;;;;;;;6249570;28;24518;-74
2024/01/30 17:21:18;;;;;;;40.47;23.73;;;;;;;;;;6247861;28;24584;-74
2024/01/30 17:24:20;;;;;;;41.97;24.35;;;;;;;;;;6248872;28;24423;-75
2024/01/30 17:27:22;;;;;;;41.50;23.85;;;;;;;;;;6247479;28;24474;-73
2024/01/30 17:30:24;;;;;;;40.50;24.30;;;;;;;;;;6246868;28;24447;-74
2024/01/30 17:33:27;;;;;;;42.58;24.55;;;;;;;;;;6245618;28;24441;-74
2024/01/30 17:36:30;;;;;;;43.60;24.10;;;;;;;;;;6245054;28;24805;-75
2024/01/30 17:39:33;;;;;;;42.70;24.40;;;;;;;;;;6246622;28;24407;-74
2024/01/30 17:42:35;;;;;;;40.88;25.30;;;;;;;;;;6248447;28;24436;-76
2024/01/30 17:45:38;;;;;;;43.40;26.20;;;;;;;;;;6244582;28;24420;-74
2024/01/30 17:48:39;;;;;;;43.28;26.52;;;;;;;;;;6249155;28;24427;-74
2024/01/30 17:51:42;;;;;;;43.90;26.70;;;;;;;;;;6247332;28;24820;-74
2024/01/30 17:54:44;;;;;;;47.55;28.95;;;;;;;;;;6243687;28;24420;-74
2024/01/30 17:57:46;;;;;;;45.30;29.00;;;;;;;;;;6243745;28;24685;-73
2024/01/30 18:00:48;;;;;;;44.83;28.13;;;;;;;;;;6240646;28;24416;-75
2024/01/30 18:03:51;;;;;;;44.83;28.67;;;;;;;;;;6258657;28;24408;-74
2024/01/30 18:06:55;;;;;;;47.80;30.23;;;;;;;;;;6239894;28;24446;-74
2024/01/30 18:09:57;;;;;;;47.90;29.55;;;;;;;;;;6241582;28;24424;-74
2024/01/30 18:12:58;;;;;;;47.15;29.63;;;;;;;;;;6276116;28;24474;-75
2024/01/30 18:16:00;;;;;;;47.30;30.33;;;;;;;;;;6259839;28;24781;-74
2024/01/30 18:19:02;;;;;;;48.85;30.63;;;;;;;;;;6241682;28;24416;-72
2024/01/30 18:22:05;;;;;;;46.40;29.13;;;;;;;;;;6239732;28;24630;-74
2024/01/30 18:25:08;;;;;;;46.17;30.23;;;;;;;;;;6241061;28;24836;-74
2024/01/30 18:28:09;;;;;;;45.15;30.20;;;;;;;;;;6240200;28;24428;-75
2024/01/30 18:31:11;;;;;;;43.47;28.92;;;;;;;;;;6239465;28;24419;-75
2024/01/30 18:34:14;;;;;;;48.17;31.33;;;;;;;;;;6244854;28;24874;-75